GRU weather

Guarulhos - Governador André Franco Montoro International Airport
São Paulo, São Paulo, Brazil

Public forecast

Using degrees Celsius for public forecast. Weather courtesy of forecast.io.

METAR (pilot weather report)

Retrieved 2019/03/20 23:00 UTC (2 minutes ago):

SBGR 202300Z 12004KT 9999 BKN015 21/19 Q1014

TAF (pilot weather forecast)

Retrieved 2019/03/20 18:33 UTC (4 hours ago):

TAF SBGR 201600Z 2018/2124 16006KT 9999 FEW040TX25/2018Z TN19/2109Z PROB30 2019/2021 SHRA BECMG 2021/2023 14005KT 8000 BKN020 BECMG 2103/2105 13005KT BKN011 PROB40 2107/2112 4000 DZ BR BKN006 BECMG 2113/2115 15010KT BKN015 PROB40 2115/2117 RA BKN012 BECMG 2118/2120 BKN011 RMK PGM